Pond: Past 24 Hour Conditions

 

Puvirnituq Airport

08:00 PM EST 26 November 2014
This table is a summary of hourly weather conditions for the past 24 hours.
Date / Time
(EST)
Wind(knots) Conditions Visibility(km) Pressure(kPa) Air tempC) Relative humidity(%) Dew pointC) Wind Chill
26 November 2014
20:00 WNW 15 Light Snow 10 101.3 -12 76 -15 -22
19:00 WNW 15 Light Snow 13 101.3 -11 77 -15 -21
18:00 W 13 Snow 0.6 101.3 -11 80 -14 -20
17:00 W 11 gust 16 Light Snowshower 19 101.2 -12 80 -14 -20
16:00 NW 11 Light Snowshower 6 101.1 -12 83 -14 -21
15:00 WNW 11 gust 16 Light Snow 2 101.1 -13 82 -15 -21
14:00 WNW 13 gust 18 Light Snowshower 5 101.0 -13 81 -16 -23
13:00 WNW 10 Light Snow 1 100.9 -12 79 -15 -20
12:00 NNW 4 Snow 0.8 100.8 -13 82 -15 -18
11:00 NNW 8 gust 15 Light Snow 3 100.7 -13 82 -15 -20
10:00 NNW 9 gust 15 Light Snow 4 100.6 -12 79 -15 -20
9:00 NNW 10 gust 15 Light Snow 4 100.5 -12 82 -15 -20
8:00 NNW 8 Light Snowshower 15 100.4 -13 82 -15 -20
7:00 NW 17 Light Snow 5 100.3 -13 92 -14 -24
6:00 WNW 23 gust 28 Light Snow 1 100.2 -12 93 -13 -23
5:00 S 13 gust 18 Light Snow 3 100.1 -11 94 -12 -20
4:00 S 15 gust 22 Light Snow 4 100.1 -12 93 -13 -22
3:00 SSE 13 gust 18 Light Snow 1 100.1 -14 81 -16 -23
2:00 SE 13 gust 18 Light Snow 16 100.1 -14 76 -18 -24
1:00 SE 15 Light Snow 16 100.1 -14 76 -18 -25
0:00 SE 13 Light Snow 16 100.2 -14 72 -18 -24
25 November 2014
23:00 SE 9 Cloudy 24 100.2 -18 71 -22 -27
22:00 ESE 7 Cloudy 24 100.3 -18 70 -23 -27
21:00 ESE 10 Cloudy 24 100.3 -19 63 -25 -29
20:00 E 9 Mostly Cloudy 24 100.3 -21 75 -24 -31
 
Map of Arctic - Eastern Arctic marine weather areas Baker Lake Airport Chesterfield Inlet Airport Coral Harbour Airport Gjoa Haven Airport Kugaaruk Airport Rankin Inlet Airport Shepherd Bay Airport Whale Cove Airport Arctic Bay Brevoort Island Qikiqtarjuaq Airport Cape Dorset Airport Cape Dyer Cape Hooper Clyde Airport Grise Fiord Airport Hall Beach Airport Igloolik Airport Iqaluit Airport Longstaff Bluff Pangnirtung Airport Pond Inlet Airport Repulse Bay Airport Resolute Airport Resolution Island Rowley Island Airport Taloyoak Airport Wager Bay Akulivik Airport Ivujivik Airport Puvirnituq Airport Kangiqsujuaq Airport Kangirsuk Airport Quaqtaq Airport Tasiujaq Airport Cape Kakkiviak Cape Kiglapait Nain Airport Saglek Cape Mercy Kimmirut Airport Aupaluk Airport Salluit Airport Kangiqsualujjuaq Airport Fort Ross
Legend: buoyBuoy land stationLand Station